createdAt,value
2018-12-14T00:01:36.320Z,43.10
2018-12-14T00:04:41.430Z,36.53
2018-12-14T00:07:46.458Z,35.43
2018-12-14T00:10:49.479Z,31.07
2018-12-14T00:13:52.524Z,37.63
2018-12-14T00:16:55.635Z,37.83
2018-12-14T00:19:58.643Z,35.53
2018-12-14T00:23:01.754Z,43.10
2018-12-14T00:26:04.746Z,34.23
2018-12-14T00:29:07.773Z,37.53
2018-12-14T00:32:11.002Z,32.83
2018-12-14T00:35:14.241Z,36.13
2018-12-14T00:38:17.354Z,41.60
2018-12-14T00:41:20.359Z,39.07
2018-12-14T00:44:23.462Z,39.97
2018-12-14T00:47:26.455Z,37.33
2018-12-14T00:50:29.481Z,36.97
2018-12-14T00:53:32.486Z,33.47
2018-12-14T00:56:35.524Z,40.93
2018-12-14T00:59:38.549Z,39.53
2018-12-14T01:02:41.578Z,40.07
2018-12-14T01:05:44.711Z,39.37
2018-12-14T01:08:47.811Z,39.37
2018-12-14T01:11:50.790Z,41.90
2018-12-14T01:14:53.818Z,38.47
2018-12-14T01:17:56.807Z,40.27
2018-12-14T01:20:59.835Z,37.07
2018-12-14T01:24:02.826Z,41.77
2018-12-14T01:27:05.839Z,37.60
2018-12-14T01:30:08.980Z,46.33
2018-12-14T01:33:12.086Z,43.57
2018-12-14T01:36:15.115Z,48.20
2018-12-14T01:39:18.175Z,45.03
2018-12-14T01:42:21.167Z,46.90
2018-12-14T01:45:24.199Z,41.73
2018-12-14T01:48:27.191Z,47.53
2018-12-14T01:51:30.414Z,43.27
2018-12-14T01:54:33.406Z,42.80
2018-12-14T01:57:36.648Z,41.53
2018-12-14T02:00:39.671Z,42.83
2018-12-14T02:03:42.654Z,46.10
2018-12-14T02:06:45.739Z,47.40
2018-12-14T02:09:48.864Z,44.87
2018-12-14T02:12:52.115Z,52.77
2018-12-14T02:15:55.113Z,45.00
2018-12-14T02:18:58.123Z,49.83
2018-12-14T02:22:01.111Z,50.50
2018-12-14T02:25:04.294Z,49.83
2018-12-14T02:28:07.300Z,53.57
2018-12-14T02:31:10.303Z,47.43
2018-12-14T02:34:13.303Z,47.37
2018-12-14T02:37:16.317Z,49.43
2018-12-14T02:40:19.351Z,47.87
2018-12-14T02:43:23.279Z,49.97
2018-12-14T02:46:26.298Z,54.27
2018-12-14T02:49:29.283Z,53.27
2018-12-14T02:52:32.274Z,54.43
2018-12-14T02:55:35.267Z,53.10
2018-12-14T02:58:38.261Z,50.77
2018-12-14T03:01:41.281Z,51.37
2018-12-14T03:04:44.290Z,51.93
2018-12-14T03:07:47.282Z,61.53
2018-12-14T03:10:50.271Z,47.03
2018-12-14T03:13:53.264Z,43.40
2018-12-14T03:16:56.610Z,48.33
2018-12-14T03:19:59.621Z,44.33
2018-12-14T03:23:02.636Z,51.30
2018-12-14T03:26:05.778Z,44.33
2018-12-14T03:29:08.771Z,44.60
2018-12-14T03:32:11.757Z,47.57
2018-12-14T03:35:14.761Z,38.90
2018-12-14T03:38:17.745Z,46.50
2018-12-14T03:41:20.783Z,43.40
2018-12-14T03:44:23.784Z,39.87
2018-12-14T03:47:26.731Z,37.80
2018-12-14T03:50:29.986Z,44.53
2018-12-14T03:53:32.903Z,43.23
2018-12-14T03:56:35.821Z,41.90
2018-12-14T03:59:38.745Z,44.60
2018-12-14T04:02:41.673Z,43.87
2018-12-14T04:05:44.764Z,46.27
2018-12-14T04:08:47.722Z,44.93
2018-12-14T04:11:53.629Z,39.50
2018-12-14T04:14:56.553Z,43.50
2018-12-14T04:17:59.481Z,40.10
2018-12-14T04:21:02.455Z,47.13
2018-12-14T04:24:05.382Z,43.23
2018-12-14T04:27:08.354Z,49.63
2018-12-14T04:30:11.291Z,43.90
2018-12-14T04:33:15.221Z,43.50
2018-12-14T04:36:18.141Z,46.10
2018-12-14T04:39:23.123Z,44.27
2018-12-14T04:42:26.291Z,42.87
2018-12-14T04:45:29.337Z,49.40
2018-12-14T04:48:32.261Z,47.70
2018-12-14T04:51:35.213Z,46.33
2018-12-14T04:54:38.143Z,46.37
2018-12-14T04:57:41.183Z,44.33
2018-12-14T05:00:44.102Z,45.77
2018-12-14T05:03:47.198Z,50.23
2018-12-14T05:06:50.122Z,48.17
2018-12-14T05:09:53.106Z,48.77
2018-12-14T05:12:56.387Z,50.50
2018-12-14T05:15:59.503Z,51.30
2018-12-14T05:19:02.439Z,43.67
2018-12-14T05:22:05.645Z,51.60
2018-12-14T05:25:08.574Z,52.53
2018-12-14T05:28:11.585Z,49.97
2018-12-14T05:31:14.529Z,49.33
2018-12-14T05:34:17.598Z,59.57
2018-12-14T05:37:20.653Z,53.03
2018-12-14T05:40:23.621Z,53.00
2018-12-14T05:43:26.550Z,52.37
2018-12-14T05:46:29.694Z,53.43
2018-12-14T05:49:32.618Z,56.97
2018-12-14T05:52:37.609Z,55.63
2018-12-14T05:55:40.598Z,54.63
2018-12-14T05:58:43.637Z,53.87
2018-12-14T06:01:46.578Z,49.50
2018-12-14T06:04:49.537Z,50.50
2018-12-14T06:07:52.462Z,48.17
2018-12-14T06:10:55.566Z,49.10
2018-12-14T06:13:58.531Z,40.73
2018-12-14T06:17:01.670Z,46.70
2018-12-14T06:20:05.238Z,47.83
2018-12-14T06:23:08.353Z,43.67
2018-12-14T06:26:11.314Z,40.10
2018-12-14T06:29:14.422Z,47.13
2018-12-14T06:32:17.342Z,42.67
2018-12-14T06:35:20.302Z,46.80
2018-12-14T06:38:23.267Z,47.40
2018-12-14T06:41:26.489Z,45.30
2018-12-14T06:44:29.449Z,42.90
2018-12-14T06:47:32.653Z,42.30
2018-12-14T06:50:35.658Z,40.03
2018-12-14T06:53:38.646Z,43.10
2018-12-14T06:56:41.586Z,39.80
2018-12-14T06:59:44.775Z,39.30
2018-12-14T07:02:47.701Z,40.53
2018-12-14T07:05:50.854Z,45.67
2018-12-14T07:08:53.789Z,41.57
2018-12-14T07:11:56.755Z,34.33
2018-12-14T07:14:59.834Z,37.37
2018-12-14T07:18:03.054Z,39.57
2018-12-14T07:21:06.088Z,36.97
2018-12-14T07:24:09.281Z,46.33
2018-12-14T07:27:12.210Z,41.37
2018-12-14T07:30:15.393Z,34.00
2018-12-14T07:33:18.326Z,37.73
2018-12-14T07:36:21.297Z,37.27
2018-12-14T07:39:24.215Z,35.90
2018-12-14T07:42:27.338Z,32.13
2018-12-14T07:45:30.287Z,33.47
2018-12-14T07:48:33.258Z,34.27
2018-12-14T07:51:36.370Z,35.93
2018-12-14T07:54:39.414Z,37.23
2018-12-14T07:57:42.333Z,33.63
2018-12-14T08:00:45.331Z,34.70
2018-12-14T08:03:48.410Z,31.37
2018-12-14T08:06:51.471Z,33.43
2018-12-14T08:09:54.402Z,29.10
2018-12-14T08:12:57.941Z,31.70
2018-12-14T08:16:00.870Z,29.17
2018-12-14T08:19:03.825Z,26.47
2018-12-14T08:22:06.772Z,34.20
2018-12-14T08:25:09.697Z,26.73
2018-12-14T08:28:12.613Z,30.30
2018-12-14T08:31:15.563Z,23.60
2018-12-14T08:34:18.493Z,23.73
2018-12-14T08:37:21.418Z,24.77
2018-12-14T08:40:24.384Z,28.60
2018-12-14T08:43:27.302Z,27.97
2018-12-14T08:46:30.221Z,26.17
2018-12-14T08:49:33.141Z,26.17
2018-12-14T08:52:36.060Z,26.20
2018-12-14T08:55:38.973Z,30.63
2018-12-14T08:58:41.976Z,28.37
2018-12-14T09:01:44.929Z,31.03
2018-12-14T09:04:47.850Z,27.20
2018-12-14T09:07:50.765Z,29.87
2018-12-14T09:10:53.751Z,26.93
2018-12-14T09:13:56.661Z,27.03
2018-12-14T09:16:59.732Z,25.57
2018-12-14T09:20:02.821Z,25.53
2018-12-14T09:23:06.029Z,23.23
2018-12-14T09:26:09.286Z,21.17
2018-12-14T09:29:12.458Z,20.37
2018-12-14T09:32:15.553Z,23.30
2018-12-14T09:35:18.526Z,25.27
2018-12-14T09:38:21.715Z,21.60
2018-12-14T09:41:24.737Z,27.30
2018-12-14T09:44:27.851Z,19.10
2018-12-14T09:47:30.863Z,22.53
2018-12-14T09:50:33.875Z,21.93
2018-12-14T09:53:36.894Z,22.93
2018-12-14T09:56:40.091Z,22.83
2018-12-14T09:59:43.167Z,20.73
2018-12-14T10:02:46.155Z,21.93
2018-12-14T10:05:49.183Z,20.60
2018-12-14T10:08:52.177Z,23.77
2018-12-14T10:11:55.604Z,20.47
2018-12-14T10:14:59.038Z,19.97
2018-12-14T10:18:02.374Z,26.07
2018-12-14T10:21:06.472Z,21.03
2018-12-14T10:24:09.459Z,23.80
2018-12-14T10:27:12.707Z,24.50
2018-12-14T10:30:15.859Z,19.27
2018-12-14T10:33:18.957Z,44.73
2018-12-14T10:36:21.951Z,25.17
2018-12-14T10:39:25.067Z,18.93
2018-12-14T10:42:28.067Z,24.13
2018-12-14T10:45:31.547Z,22.53
2018-12-14T10:48:34.535Z,23.67
2018-12-14T10:51:37.807Z,23.50
2018-12-14T10:54:41.143Z,19.17
2018-12-14T10:57:44.315Z,25.93
2018-12-14T11:00:53.784Z,22.50
2018-12-14T11:03:56.799Z,20.53
2018-12-14T11:06:59.846Z,22.27
2018-12-14T11:10:02.911Z,21.30
2018-12-14T11:13:07.067Z,23.60
2018-12-14T11:16:10.055Z,20.93
2018-12-14T11:19:13.071Z,19.23
2018-12-14T11:22:16.064Z,22.40
2018-12-14T11:25:19.179Z,21.23
2018-12-14T11:28:22.155Z,23.80
2018-12-14T11:31:25.175Z,20.47
2018-12-14T11:34:29.788Z,24.03
2018-12-14T11:37:33.272Z,19.90
2018-12-14T11:40:36.293Z,26.63
2018-12-14T11:43:39.408Z,22.03
2018-12-14T11:46:42.397Z,23.13
2018-12-14T11:49:45.527Z,23.97
2018-12-14T11:52:48.535Z,21.00
2018-12-14T11:55:51.579Z,26.77
2018-12-14T11:58:54.575Z,20.73
2018-12-14T12:01:57.691Z,21.30
2018-12-14T12:05:00.679Z,18.77
2018-12-14T12:08:03.759Z,19.70
2018-12-14T12:11:06.763Z,19.13
2018-12-14T12:14:09.792Z,17.20
2018-12-14T12:17:12.792Z,20.57
2018-12-14T12:20:15.842Z,22.93
2018-12-14T12:23:18.859Z,19.17
2018-12-14T12:26:21.979Z,28.17
2018-12-14T12:29:24.979Z,22.13
2018-12-14T12:32:28.169Z,20.67
2018-12-14T12:35:31.172Z,20.00
2018-12-14T12:38:38.160Z,23.03
2018-12-14T12:41:39.239Z,30.10
2018-12-14T12:44:42.280Z,22.13
2018-12-14T12:47:45.280Z,19.70
2018-12-14T12:50:49.622Z,24.80
2018-12-14T12:53:52.632Z,23.20
2018-12-14T12:56:55.715Z,23.50
2018-12-14T12:59:58.723Z,22.07
2018-12-14T13:03:01.762Z,21.20
2018-12-14T13:06:04.775Z,22.57
2018-12-14T13:09:08.036Z,29.27
2018-12-14T13:12:12.210Z,25.57
2018-12-14T13:15:15.327Z,31.27
2018-12-14T13:18:18.320Z,30.83
2018-12-14T13:21:21.335Z,27.83
2018-12-14T13:24:24.339Z,33.13
2018-12-14T13:27:28.191Z,34.27
2018-12-14T13:30:31.243Z,32.23
2018-12-14T13:33:34.414Z,32.87
2018-12-14T13:36:37.506Z,35.47
2018-12-14T13:39:40.828Z,42.17
2018-12-14T13:42:44.353Z,34.43
2018-12-14T13:45:47.571Z,39.70
2018-12-14T13:48:50.636Z,38.40
2018-12-14T13:51:53.659Z,39.43
2018-12-14T13:54:56.661Z,41.07
2018-12-14T13:57:59.664Z,38.77
2018-12-14T14:01:02.742Z,39.70
2018-12-14T14:04:05.758Z,45.80
2018-12-14T14:07:08.758Z,43.87
2018-12-14T14:10:11.910Z,40.03
2018-12-14T14:13:14.907Z,41.23
2018-12-14T14:16:17.906Z,45.83
2018-12-14T14:19:21.655Z,46.33
2018-12-14T14:22:24.903Z,45.87
2018-12-14T14:25:28.266Z,47.77
2018-12-14T14:28:31.298Z,46.73
2018-12-14T14:31:40.858Z,56.63
2018-12-14T14:34:44.768Z,55.13
2018-12-14T14:37:47.759Z,52.40
2018-12-14T14:40:50.795Z,54.03
2018-12-14T14:43:53.838Z,49.17
2018-12-14T14:46:56.847Z,49.43
2018-12-14T14:49:59.868Z,49.90
2018-12-14T14:53:02.862Z,52.30
2018-12-14T14:56:05.915Z,57.07
2018-12-14T14:59:08.981Z,50.93
2018-12-14T15:02:11.995Z,52.27
2018-12-14T15:05:14.999Z,53.13
2018-12-14T15:08:18.003Z,51.87
2018-12-14T15:11:21.033Z,58.00
2018-12-14T15:14:24.031Z,54.73
2018-12-14T15:17:27.023Z,48.10
2018-12-14T15:20:31.048Z,55.07
2018-12-14T15:23:34.134Z,54.33
2018-12-14T15:26:37.156Z,50.47
2018-12-14T15:29:40.154Z,51.20
2018-12-14T15:32:43.302Z,46.23
2018-12-14T15:35:46.287Z,49.47
2018-12-14T15:38:49.282Z,48.67
2018-12-14T15:41:52.294Z,51.73
2018-12-14T15:44:55.287Z,50.40
2018-12-14T15:47:58.265Z,49.70
2018-12-14T15:51:01.214Z,50.03
2018-12-14T15:54:04.146Z,52.37
2018-12-14T15:57:08.258Z,49.17
2018-12-14T16:00:11.453Z,47.43
2018-12-14T16:03:14.393Z,53.77
2018-12-14T16:06:17.463Z,49.30
2018-12-14T16:09:21.075Z,50.50
2018-12-14T16:12:24.141Z,53.47
2018-12-14T16:15:27.136Z,48.83
2018-12-14T16:18:30.068Z,53.83
2018-12-14T16:21:33.015Z,53.33
2018-12-14T16:24:35.954Z,50.50
2018-12-14T16:27:39.199Z,51.67
2018-12-14T16:30:42.109Z,41.07
2018-12-14T16:33:45.046Z,50.37
2018-12-14T16:36:47.974Z,45.83
2018-12-14T16:39:51.010Z,52.83
2018-12-14T16:42:53.931Z,53.17
2018-12-14T16:45:56.883Z,49.17
2018-12-14T16:48:59.874Z,46.20
2018-12-14T16:52:02.997Z,46.27
2018-12-14T16:55:07.258Z,49.53
2018-12-14T16:58:10.222Z,49.30
2018-12-14T17:01:13.156Z,50.53
2018-12-14T17:04:16.331Z,50.77
2018-12-14T17:07:19.386Z,49.97
2018-12-14T17:10:22.398Z,49.23
2018-12-14T17:13:25.337Z,53.63
2018-12-14T17:16:28.409Z,52.30
2018-12-14T17:19:31.341Z,55.30
2018-12-14T17:22:34.417Z,52.67
2018-12-14T17:25:37.346Z,48.10
2018-12-14T17:28:40.417Z,55.50
2018-12-14T17:31:43.349Z,47.57
2018-12-14T17:34:46.482Z,44.23
2018-12-14T17:37:51.448Z,47.80
2018-12-14T17:40:54.733Z,47.43
2018-12-14T17:43:57.669Z,43.87
2018-12-14T17:47:00.790Z,46.53
2018-12-14T17:50:04.209Z,52.93
2018-12-14T17:53:07.178Z,43.90
2018-12-14T17:56:10.109Z,47.83
2018-12-14T17:59:13.065Z,48.27
2018-12-14T18:02:16.062Z,53.83
2018-12-14T18:05:19.049Z,43.63
2018-12-14T18:08:21.998Z,53.97
2018-12-14T18:11:25.037Z,45.20
2018-12-14T18:14:27.971Z,46.30
2018-12-14T18:17:30.950Z,45.83
2018-12-14T18:20:33.901Z,54.40
2018-12-14T18:23:36.953Z,48.73
2018-12-14T18:26:40.029Z,51.83
2018-12-14T18:29:43.002Z,46.20
2018-12-14T18:32:46.047Z,43.63
2018-12-14T18:35:49.041Z,41.03
2018-12-14T18:38:51.966Z,50.07
2018-12-14T18:41:54.966Z,47.33
2018-12-14T18:44:57.897Z,49.90
2018-12-14T18:48:00.878Z,50.27
2018-12-14T18:51:03.846Z,45.17
2018-12-14T18:54:06.817Z,46.53
2018-12-14T18:57:09.766Z,47.90
2018-12-14T19:00:12.773Z,47.13
2018-12-14T19:03:15.725Z,48.13
2018-12-14T19:06:18.675Z,40.47
2018-12-14T19:09:21.610Z,46.97
2018-12-14T19:12:24.929Z,42.83
2018-12-14T19:15:27.966Z,48.00
2018-12-14T19:18:30.923Z,42.13
2018-12-14T19:21:33.846Z,49.57
2018-12-14T19:24:36.882Z,45.07
2018-12-14T19:27:39.950Z,39.40
2018-12-14T19:30:42.943Z,47.87
2018-12-14T19:33:46.000Z,43.60
2018-12-14T19:36:48.953Z,41.87
2018-12-14T19:39:51.884Z,44.73
2018-12-14T19:42:55.041Z,45.17
2018-12-14T19:45:57.958Z,48.63
2018-12-14T19:49:00.894Z,38.90
2018-12-14T19:52:04.306Z,39.40
2018-12-14T19:55:07.446Z,38.63
2018-12-14T19:58:10.398Z,43.20
2018-12-14T20:01:13.338Z,41.33
2018-12-14T20:04:16.270Z,39.07
2018-12-14T20:07:19.209Z,44.03
2018-12-14T20:10:22.129Z,40.50
2018-12-14T20:13:25.122Z,40.43
2018-12-14T20:16:28.085Z,37.43
2018-12-14T20:19:31.121Z,40.10
2018-12-14T20:22:34.109Z,40.93
2018-12-14T20:25:37.037Z,35.40
2018-12-14T20:28:39.951Z,37.73
2018-12-14T20:31:42.873Z,38.13
2018-12-14T20:34:45.969Z,41.33
2018-12-14T20:37:49.145Z,40.47
2018-12-14T20:40:52.066Z,36.67
2018-12-14T20:43:55.091Z,37.50
2018-12-14T20:47:00.157Z,34.63
2018-12-14T20:53:36.016Z,37.00
2018-12-14T20:56:40.709Z,35.37
2018-12-14T20:59:43.977Z,42.53
2018-12-14T21:02:48.297Z,34.70
2018-12-14T21:05:51.597Z,35.60
2018-12-14T21:08:54.893Z,34.13
2018-12-14T21:11:59.113Z,34.43
2018-12-14T21:15:03.847Z,36.53
2018-12-14T21:18:07.050Z,38.93
2018-12-14T21:21:10.261Z,37.87
2018-12-14T21:24:13.437Z,35.23
2018-12-14T21:27:16.730Z,35.47
2018-12-14T21:30:20.946Z,33.80
2018-12-14T21:33:24.145Z,34.50
2018-12-14T21:36:27.338Z,28.93
2018-12-14T21:39:33.915Z,28.53
2018-12-14T21:42:37.110Z,32.27
2018-12-14T21:45:40.304Z,33.83
2018-12-14T21:48:43.554Z,31.97
2018-12-14T21:51:46.714Z,29.80
2018-12-14T21:54:50.123Z,29.13
2018-12-14T21:57:53.655Z,31.00
2018-12-14T22:00:56.810Z,32.57
2018-12-14T22:04:00.018Z,32.70
2018-12-14T22:07:03.203Z,34.03
2018-12-14T22:10:07.726Z,34.07
2018-12-14T22:13:10.916Z,30.60
2018-12-14T22:16:14.119Z,29.83
2018-12-14T22:19:17.314Z,34.00
2018-12-14T22:22:20.517Z,31.83
2018-12-14T22:25:23.710Z,30.60
2018-12-14T22:28:26.909Z,27.83
2018-12-14T22:31:30.094Z,27.50
2018-12-14T22:34:33.302Z,27.87
2018-12-14T22:37:37.145Z,27.60
2018-12-14T22:40:40.310Z,25.40
2018-12-14T22:43:43.485Z,28.50
2018-12-14T22:46:46.681Z,28.43
2018-12-14T22:49:49.982Z,23.87
2018-12-14T22:52:53.177Z,26.60
2018-12-14T22:55:56.374Z,29.07
2018-12-14T22:58:59.566Z,29.03
2018-12-14T23:02:02.762Z,29.50
2018-12-14T23:05:07.193Z,28.97
2018-12-14T23:08:10.383Z,26.73
2018-12-14T23:11:13.574Z,28.50
2018-12-14T23:14:16.781Z,30.50
2018-12-14T23:17:19.966Z,28.07
2018-12-14T23:20:23.162Z,31.50
2018-12-14T23:23:26.396Z,27.33
2018-12-14T23:26:29.753Z,31.30
2018-12-14T23:29:32.941Z,29.93
2018-12-14T23:32:36.278Z,29.87
2018-12-14T23:35:39.454Z,29.17
2018-12-14T23:38:42.733Z,32.43
2018-12-14T23:41:45.935Z,31.23
2018-12-14T23:44:49.166Z,28.23
2018-12-14T23:47:53.355Z,26.30
2018-12-14T23:50:56.618Z,26.63
2018-12-14T23:53:59.745Z,26.87
2018-12-14T23:57:02.967Z,28.33
